Accueil
METAR-TAF:

METAR-TAF

Aéroports :

Chambery / Aix-Les-Bains, France

Aéroport de Chambéry - Savoie

latitude: 45-39N, longitude: 005-53E, altitude: 235 m

Observation

Le bulletin a été fait il y a 28 minutes, à 21:00 UTC
Vent 5 kt de est/sud-est
Température 7°C
Humidité 81%
Pression 1014 hPa
Visibilité 10 km ou plus
Nuages épars à une hauteur de 2000 ft
Nuages fragmentés à une hauteur de 3100 ft
Nuages fragmentés à une hauteur de 4200 ft
pluie faible

METAR: LFLB 262100Z AUTO 12005KT 9999 -RA SCT020 BKN031 BKN042 07/04 Q1014

Heure: 23:28 (21:28 UTC)

Prévision

Le bulletin a été fait il y a 4 heures et 39 minutes, à 16:49 UTC
Prévision valable du 26 à 16 UTC au 27 à 12 UTC
Vent 5 kt de nord/nord-est
Visibilité 10 km ou plus
Nuages fragmentés à une hauteur de 2300 ft

TAF: LFLB 261649Z 2616/2712 02005KT 9999 BKN023

Observations et prévisions météorologiques de plus de 4000 aéroports (messages METAR et TAF).

Les stations disponibles sont représentées par des disques jaunes et rouges sur la carte.

Passer la souris dessus pour voir le nom de la station.

Cliquer dessus pour voir les observations et prévisions météorologiques.

Pour changer de carte: cliquez sur les boutons verts avec une croix noire pour zoomer, sur le bouton vert avec un tiret pour effectuer un zoom arrière, ou sur les flèches vertes pour les cartes adjacentes.


METAR-TAF: